Almo, Idaho
Current Conditions -  °F | °C
As of 10:53 AM on Friday 24 Oct 2014 (Local Time) from KBYI Reporting Station
Clear Clear  
Wind Chill: 58°   Ceiling: Unl
Heat Index: 58°   Visibility: 10mi
Dew Point: 41°   Wind: 6mph
Humidity: 53%   Direction: 30°NNE
Pressure: 30.12"   Gusts: NA
Location:  42.1°N, 113.64°W
Report Text: KBYI 241653Z AUTO 03005KT 10SM CLR 14/05 A3012 RMK AO2 SLP182 T01440050
Loading
Personal Weather Stations






























Interactive Weather Map New forecast layout! Learn more

10-Day Weather Forecast

Advertisements
Track Severe Weather on mobile